createdAt,value
2018-05-07T00:00:51.254Z,101641.95
2018-05-07T00:03:20.290Z,101634.34
2018-05-07T00:05:48.572Z,101633.70
2018-05-07T00:08:16.838Z,101634.61
2018-05-07T00:10:45.858Z,101638.73
2018-05-07T00:13:14.128Z,101640.00
2018-05-07T00:15:44.462Z,101635.62
2018-05-07T00:18:12.679Z,101633.16
2018-05-07T00:20:40.969Z,101631.88
2018-05-07T00:23:09.239Z,101627.80
2018-05-07T00:25:38.268Z,101627.55
2018-05-07T00:28:06.537Z,101635.83
2018-05-07T00:30:35.577Z,101632.28
2018-05-07T00:33:03.858Z,101622.81
2018-05-07T00:35:32.095Z,101625.86
2018-05-07T00:38:00.374Z,101624.55
2018-05-07T00:40:28.627Z,101628.21
2018-05-07T00:42:56.889Z,101626.51
2018-05-07T00:45:25.941Z,101623.80
2018-05-07T00:47:54.202Z,101626.41
2018-05-07T00:50:22.470Z,101619.00
2018-05-07T00:52:50.745Z,101616.16
2018-05-07T00:55:22.712Z,101622.62
2018-05-07T00:57:50.994Z,101620.03
2018-05-07T01:00:19.273Z,101619.74
2018-05-07T01:02:47.542Z,101620.76
2018-05-07T01:05:15.803Z,101622.63
2018-05-07T01:07:44.904Z,101627.56
2018-05-07T01:10:13.163Z,101630.73
2018-05-07T01:12:41.488Z,101626.70
2018-05-07T01:15:09.717Z,101625.77
2018-05-07T01:17:37.976Z,101630.00
2018-05-07T01:20:06.239Z,101631.91
2018-05-07T01:22:34.492Z,101628.34
2018-05-07T01:25:02.748Z,101626.91
2018-05-07T01:27:31.038Z,101625.58
2018-05-07T01:30:01.305Z,101632.11
2018-05-07T01:32:29.590Z,101630.24
2018-05-07T01:34:57.848Z,101632.31
2018-05-07T01:37:26.870Z,101633.86
2018-05-07T01:39:55.159Z,101638.82
2018-05-07T01:42:24.196Z,101627.32
2018-05-07T01:44:52.459Z,101630.27
2018-05-07T01:47:20.712Z,101627.49
2018-05-07T01:49:49.051Z,101632.92
2018-05-07T01:52:17.318Z,101630.58
2018-05-07T01:54:46.415Z,101626.94
2018-05-07T01:57:15.525Z,101628.33
2018-05-07T01:59:44.551Z,101622.38
2018-05-07T02:02:12.799Z,101626.44
2018-05-07T02:04:41.067Z,101622.62
2018-05-07T02:07:09.342Z,101621.81
2018-05-07T02:09:37.622Z,101615.32
2018-05-07T02:12:05.913Z,101618.62
2018-05-07T02:14:34.198Z,101618.62
2018-05-07T02:17:02.444Z,101617.31
2018-05-07T02:19:30.723Z,101619.13
2018-05-07T02:21:58.980Z,101621.31
2018-05-07T02:24:27.252Z,101621.13
2018-05-07T02:26:55.529Z,101618.27
2018-05-07T02:29:24.653Z,101623.98
2018-05-07T02:31:53.747Z,101619.11
2018-05-07T02:34:22.808Z,101622.62
2018-05-07T02:36:51.064Z,101619.83
2018-05-07T02:39:19.342Z,101621.72
2018-05-07T02:41:47.627Z,101617.81
2018-05-07T02:44:16.697Z,101615.70
2018-05-07T02:46:44.971Z,101619.69
2018-05-07T02:49:13.248Z,101619.18
2018-05-07T02:51:41.526Z,101610.45
2018-05-07T02:54:09.806Z,101609.41
2018-05-07T02:56:38.083Z,101607.18
2018-05-07T02:59:07.118Z,101608.33
2018-05-07T03:01:35.396Z,101610.31
2018-05-07T03:04:03.651Z,101605.20
2018-05-07T03:06:31.924Z,101609.25
2018-05-07T03:09:00.178Z,101596.66
2018-05-07T03:11:28.463Z,101604.03
2018-05-07T03:13:56.778Z,101600.17
2018-05-07T03:16:25.036Z,101602.91
2018-05-07T03:18:53.326Z,101597.77
2018-05-07T03:21:21.589Z,101592.22
2018-05-07T03:23:50.634Z,101594.48
2018-05-07T03:26:18.904Z,101593.74
2018-05-07T03:28:47.936Z,101591.75
2018-05-07T03:31:16.219Z,101593.64
2018-05-07T03:33:44.522Z,101596.39
2018-05-07T03:36:12.777Z,101598.35
2018-05-07T03:38:41.809Z,101600.56
2018-05-07T03:41:10.091Z,101597.22
2018-05-07T03:43:38.339Z,101600.27
2018-05-07T03:46:06.665Z,101593.40
2018-05-07T03:48:34.970Z,101595.33
2018-05-07T03:51:03.980Z,101591.98
2018-05-07T03:53:32.268Z,101594.47
2018-05-07T03:56:00.531Z,101585.45
2018-05-07T03:58:29.552Z,101585.08
2018-05-07T04:00:57.817Z,101581.22
2018-05-07T04:03:26.076Z,101576.86
2018-05-07T04:05:54.535Z,101576.97
2018-05-07T04:08:22.793Z,101577.40
2018-05-07T04:10:51.850Z,101576.10
2018-05-07T04:13:20.201Z,101573.06
2018-05-07T04:15:48.379Z,101578.30
2018-05-07T04:18:34.210Z,101580.90
2018-05-07T04:21:11.207Z,101579.53
2018-05-07T04:23:57.317Z,101577.73
2018-05-07T04:26:25.589Z,101571.61
2018-05-07T04:28:54.609Z,101572.37
2018-05-07T04:31:22.867Z,101576.72
2018-05-07T04:33:51.124Z,101581.94
2018-05-07T04:36:19.441Z,101578.71
2018-05-07T04:38:47.710Z,101579.66
2018-05-07T04:41:15.995Z,101575.08
2018-05-07T04:43:44.280Z,101580.25
2018-05-07T04:46:12.769Z,101579.69
2018-05-07T04:48:41.040Z,101587.39
2018-05-07T04:51:09.316Z,101587.19
2018-05-07T04:53:37.620Z,101583.92
2018-05-07T04:56:05.870Z,101584.01
2018-05-07T04:58:34.147Z,101582.41
2018-05-07T05:01:02.425Z,101590.66
2018-05-07T05:03:30.779Z,101583.58
2018-05-07T05:05:59.789Z,101582.94
2018-05-07T05:08:28.082Z,101580.44
2018-05-07T05:10:56.335Z,101581.91
2018-05-07T05:13:24.597Z,101580.66
2018-05-07T05:15:52.886Z,101577.69
2018-05-07T05:18:21.156Z,101573.16
2018-05-07T05:20:49.500Z,101572.97
2018-05-07T05:23:18.601Z,101576.84
2018-05-07T05:25:46.901Z,101575.89
2018-05-07T05:28:15.181Z,101577.35
2018-05-07T05:30:43.440Z,101577.16
2018-05-07T05:33:11.735Z,101572.11
2018-05-07T05:35:40.007Z,101569.64
2018-05-07T05:38:08.276Z,101573.24
2018-05-07T05:40:36.533Z,101574.27
2018-05-07T05:43:04.838Z,101565.98
2018-05-07T05:45:33.904Z,101568.98
2018-05-07T05:48:02.170Z,101571.02
2018-05-07T05:50:30.406Z,101565.30
2018-05-07T05:52:58.683Z,101558.30
2018-05-07T05:55:27.025Z,101551.87
2018-05-07T05:57:56.045Z,101552.56
2018-05-07T06:00:24.342Z,101558.43
2018-05-07T06:02:52.615Z,101553.23
2018-05-07T06:05:21.636Z,101559.05
2018-05-07T06:07:49.985Z,101557.59
2018-05-07T06:10:18.373Z,101556.91
2018-05-07T06:12:46.649Z,101561.72
2018-05-07T06:15:14.977Z,101557.86
2018-05-07T06:17:43.994Z,101560.31
2018-05-07T06:20:12.260Z,101568.98
2018-05-07T06:22:41.302Z,101569.28
2018-05-07T06:25:09.582Z,101562.70
2018-05-07T06:27:37.825Z,101563.25
2018-05-07T06:30:06.107Z,101565.27
2018-05-07T06:32:34.385Z,101561.75
2018-05-07T06:35:02.633Z,101561.16
2018-05-07T06:37:30.910Z,101570.58
2018-05-07T06:39:59.947Z,101564.78
2018-05-07T06:42:28.210Z,101567.17
2018-05-07T06:44:57.243Z,101565.13
2018-05-07T06:47:25.491Z,101561.52
2018-05-07T06:49:53.770Z,101553.09
2018-05-07T06:52:22.064Z,101570.99
2018-05-07T06:54:50.365Z,101563.09
2018-05-07T06:57:18.669Z,101567.19
2018-05-07T06:59:46.950Z,101555.64
2018-05-07T07:02:16.095Z,101562.63
2018-05-07T07:04:44.237Z,101564.47
2018-05-07T07:07:12.655Z,101567.18
2018-05-07T07:09:41.774Z,101556.56
2018-05-07T07:12:10.798Z,101563.59
2018-05-07T07:14:39.066Z,101555.18
2018-05-07T07:17:07.311Z,101558.51
2018-05-07T07:19:35.578Z,101551.94
2018-05-07T07:22:03.848Z,101555.23
2018-05-07T07:24:32.125Z,101557.25
2018-05-07T07:27:00.376Z,101551.74
2018-05-07T07:29:28.658Z,101543.43
2018-05-07T07:31:58.034Z,101546.75
2018-05-07T07:34:26.301Z,101546.81
2018-05-07T07:36:55.403Z,101548.89
2018-05-07T07:39:24.439Z,101546.20
2018-05-07T07:41:52.696Z,101547.11
2018-05-07T07:44:21.006Z,101545.44
2018-05-07T07:46:50.053Z,101546.19
2018-05-07T07:49:18.426Z,101541.69
2018-05-07T07:51:46.693Z,101542.39
2018-05-07T07:54:14.996Z,101536.64
2018-05-07T07:56:43.283Z,101545.91
2018-05-07T07:59:12.355Z,101549.20
2018-05-07T08:01:40.680Z,101541.02
2018-05-07T08:04:08.916Z,101542.84
2018-05-07T08:06:37.182Z,101533.28
2018-05-07T08:09:06.270Z,101533.38
2018-05-07T08:11:34.548Z,101527.99
2018-05-07T08:14:03.592Z,101537.53
2018-05-07T08:16:31.861Z,101533.95
2018-05-07T08:19:00.110Z,101540.41
2018-05-07T08:21:29.333Z,101530.98
2018-05-07T08:23:58.372Z,101529.93
2018-05-07T08:26:26.612Z,101526.15
2018-05-07T08:28:54.906Z,101523.26
2018-05-07T08:31:23.186Z,101523.88
2018-05-07T08:33:51.536Z,101521.06
2018-05-07T08:36:20.594Z,101517.08
2018-05-07T08:38:48.849Z,101514.67
2018-05-07T08:41:17.213Z,101514.83
2018-05-07T08:43:45.505Z,101512.89
2018-05-07T08:46:13.778Z,101504.58
2018-05-07T08:48:42.788Z,101506.27
2018-05-07T08:51:11.938Z,101506.09
2018-05-07T08:53:40.197Z,101505.45
2018-05-07T08:56:09.242Z,101505.03
2018-05-07T08:58:37.529Z,101496.78
2018-05-07T09:01:05.791Z,101495.47
2018-05-07T09:03:34.053Z,101496.56
2018-05-07T09:06:02.336Z,101498.53
2018-05-07T09:08:30.602Z,101490.94
2018-05-07T09:10:58.870Z,101493.23
2018-05-07T09:13:27.144Z,101489.81
2018-05-07T09:15:55.420Z,101482.65
2018-05-07T09:18:24.452Z,101486.95
2018-05-07T09:20:52.768Z,101477.10
2018-05-07T09:23:21.020Z,101477.08
2018-05-07T09:25:49.326Z,101470.14
2018-05-07T09:28:17.655Z,101471.95
2018-05-07T09:30:45.960Z,101471.73
2018-05-07T09:33:14.268Z,101461.56
2018-05-07T09:35:43.304Z,101459.73
2018-05-07T09:38:11.589Z,101463.70
2018-05-07T09:40:39.876Z,101459.59
2018-05-07T09:43:08.152Z,101452.88
2018-05-07T09:45:37.177Z,101452.43
2018-05-07T09:48:05.460Z,101454.34
2018-05-07T09:50:34.500Z,101446.64
2018-05-07T09:53:02.756Z,101446.55
2018-05-07T09:55:31.023Z,101443.14
2018-05-07T09:58:04.648Z,101439.34
2018-05-07T10:00:37.469Z,101430.39
2018-05-07T10:03:05.737Z,101431.47
2018-05-07T10:05:34.776Z,101425.50
2018-05-07T10:08:03.085Z,101428.56
2018-05-07T10:10:31.361Z,101424.47
2018-05-07T10:12:59.630Z,101413.00
2018-05-07T10:15:27.885Z,101413.13
2018-05-07T10:17:56.147Z,101406.66
2018-05-07T10:20:24.432Z,101406.76
2018-05-07T10:22:52.694Z,101407.27
2018-05-07T10:25:20.976Z,101402.98
2018-05-07T10:27:49.241Z,101398.23
2018-05-07T10:30:18.290Z,101398.45
2018-05-07T10:32:46.567Z,101406.13
2018-05-07T10:35:14.932Z,101392.67
2018-05-07T10:37:43.115Z,101393.26
2018-05-07T10:40:12.255Z,101396.81
2018-05-07T10:42:40.614Z,101395.38
2018-05-07T10:45:08.759Z,101390.88
2018-05-07T10:47:37.050Z,101391.13
2018-05-07T10:50:05.297Z,101380.59
2018-05-07T10:52:34.329Z,101374.27
2018-05-07T10:55:02.595Z,101375.33
2018-05-07T10:57:31.654Z,101370.64
2018-05-07T11:00:00.010Z,101372.93
2018-05-07T11:02:28.287Z,101367.55
2018-05-07T11:04:57.322Z,101361.69
2018-05-07T11:07:25.642Z,101353.92
2018-05-07T11:09:53.849Z,101353.55
2018-05-07T11:12:22.113Z,101357.28
2018-05-07T11:14:50.409Z,101346.72
2018-05-07T11:17:18.683Z,101353.31
2018-05-07T11:19:47.212Z,101344.97
2018-05-07T11:22:15.439Z,101344.36
2018-05-07T11:24:43.782Z,101340.13
2018-05-07T11:27:12.922Z,101337.70
2018-05-07T11:29:41.957Z,101336.88
2018-05-07T11:32:10.222Z,101342.24
2018-05-07T11:34:39.334Z,101331.20
2018-05-07T11:37:08.409Z,101337.74
2018-05-07T11:39:36.692Z,101334.66
2018-05-07T11:42:04.991Z,101334.63
2018-05-07T11:44:33.315Z,101337.64
2018-05-07T11:47:02.367Z,101330.24
2018-05-07T11:49:30.622Z,101321.15
2018-05-07T11:51:59.741Z,101326.94
2018-05-07T11:54:28.778Z,101320.70
2018-05-07T11:56:57.143Z,101318.98
2018-05-07T11:59:25.423Z,101323.67
2018-05-07T12:01:54.491Z,101317.88
2018-05-07T12:04:22.730Z,101315.70
2018-05-07T12:06:51.027Z,101320.81
2018-05-07T12:09:19.314Z,101315.84
2018-05-07T12:11:47.712Z,101315.59
2018-05-07T12:14:15.995Z,101302.35
2018-05-07T12:16:44.290Z,101306.39
2018-05-07T12:19:12.678Z,101299.47
2018-05-07T12:21:41.702Z,101287.91
2018-05-07T12:24:10.028Z,101290.87
2018-05-07T12:26:38.354Z,101284.23
2018-05-07T12:29:07.390Z,101280.41
2018-05-07T12:31:35.877Z,101281.90
2018-05-07T12:34:04.043Z,101278.44
2018-05-07T12:36:33.276Z,101276.99
2018-05-07T12:39:01.552Z,101278.61
2018-05-07T12:41:30.571Z,101278.33
2018-05-07T12:43:58.843Z,101273.62
2018-05-07T12:46:27.967Z,101260.91
2018-05-07T12:48:56.991Z,101268.27
2018-05-07T12:51:25.307Z,101260.02
2018-05-07T12:53:53.662Z,101259.83
2018-05-07T12:56:21.962Z,101255.58
2018-05-07T12:58:50.272Z,101255.98
2018-05-07T13:01:18.571Z,101246.23
2018-05-07T13:03:46.895Z,101238.97
2018-05-07T13:06:15.929Z,101243.19
2018-05-07T13:08:44.301Z,101245.97
2018-05-07T13:11:13.331Z,101243.61
2018-05-07T13:13:41.620Z,101248.73
2018-05-07T13:16:09.913Z,101236.70
2018-05-07T13:18:38.186Z,101232.22
2018-05-07T13:21:07.215Z,101225.64
2018-05-07T13:23:35.497Z,101225.74
2018-05-07T13:26:04.530Z,101228.73
2018-05-07T13:28:32.901Z,101221.17
2018-05-07T13:31:01.173Z,101212.33
2018-05-07T13:33:30.214Z,101207.97
2018-05-07T13:35:58.496Z,101203.58
2018-05-07T13:38:26.764Z,101198.59
2018-05-07T13:40:55.805Z,101194.69
2018-05-07T13:43:24.071Z,101195.89
2018-05-07T13:45:52.355Z,101186.05
2018-05-07T13:48:20.754Z,101187.20
2018-05-07T13:50:49.038Z,101190.75
2018-05-07T13:53:17.291Z,101181.85
2018-05-07T13:55:45.571Z,101172.59
2018-05-07T13:58:13.819Z,101168.34
2018-05-07T14:00:42.218Z,101164.85
2018-05-07T14:03:10.410Z,101167.09
2018-05-07T14:05:38.701Z,101159.86
2018-05-07T14:08:07.181Z,101156.33
2018-05-07T14:10:35.448Z,101149.56
2018-05-07T14:13:04.559Z,101147.91
2018-05-07T14:15:32.873Z,101146.67
2018-05-07T14:18:01.161Z,101139.41
2018-05-07T14:20:30.172Z,101141.06
2018-05-07T14:22:58.444Z,101136.27
2018-05-07T14:25:27.589Z,101133.64
2018-05-07T14:27:55.871Z,101137.26
2018-05-07T14:30:24.254Z,101138.28
2018-05-07T14:32:52.712Z,101137.61
2018-05-07T14:35:21.035Z,101135.45
2018-05-07T14:37:49.295Z,101128.09
2018-05-07T14:40:18.709Z,101123.58
2018-05-07T14:42:47.236Z,101116.09
2018-05-07T14:45:16.285Z,101113.57
2018-05-07T14:47:44.607Z,101128.62
2018-05-07T14:50:12.861Z,101111.91
2018-05-07T14:52:41.220Z,101106.95
2018-05-07T14:55:09.493Z,101114.14
2018-05-07T14:57:39.229Z,101101.91
2018-05-07T15:00:07.493Z,101100.44
2018-05-07T15:02:35.817Z,101103.48
2018-05-07T15:05:04.122Z,101094.55
2018-05-07T15:07:32.461Z,101097.58
2018-05-07T15:10:00.746Z,101094.62
2018-05-07T15:12:28.988Z,101096.31
2018-05-07T15:14:57.287Z,101101.97
2018-05-07T15:17:25.531Z,101098.01
2018-05-07T15:19:54.564Z,101092.20
2018-05-07T15:22:22.841Z,101089.22
2018-05-07T15:24:52.856Z,101081.02
2018-05-07T15:27:21.883Z,101093.96
2018-05-07T15:29:50.188Z,101089.39
2018-05-07T15:32:18.474Z,101087.45
2018-05-07T15:34:46.750Z,101081.48
2018-05-07T15:37:15.870Z,101080.53
2018-05-07T15:39:44.128Z,101080.95
2018-05-07T15:42:13.147Z,101078.90
2018-05-07T15:44:42.201Z,101077.31
2018-05-07T15:47:10.474Z,101078.59
2018-05-07T15:49:38.756Z,101079.12
2018-05-07T15:52:07.077Z,101081.72
2018-05-07T15:54:35.342Z,101076.20
2018-05-07T15:57:03.626Z,101072.40
2018-05-07T15:59:32.860Z,101064.58
2018-05-07T16:02:01.218Z,101067.36
2018-05-07T16:04:30.488Z,101067.53
2018-05-07T16:06:58.774Z,101067.21
2018-05-07T16:09:27.111Z,101061.00
2018-05-07T16:11:56.137Z,101065.13
2018-05-07T16:14:24.420Z,101067.81
2018-05-07T16:16:52.715Z,101060.73
2018-05-07T16:19:21.006Z,101057.37
2018-05-07T16:21:49.414Z,101051.66
2018-05-07T16:24:17.687Z,101057.37
2018-05-07T16:26:45.987Z,101057.64
2018-05-07T16:29:14.368Z,101061.44
2018-05-07T16:31:43.371Z,101056.18
2018-05-07T16:34:11.667Z,101048.04
2018-05-07T16:36:40.776Z,101052.83
2018-05-07T16:39:09.057Z,101043.05
2018-05-07T16:41:38.063Z,101039.69
2018-05-07T16:44:07.104Z,101039.88
2018-05-07T16:46:35.381Z,101035.16
2018-05-07T16:49:03.758Z,101037.00
2018-05-07T16:51:31.976Z,101034.20
2018-05-07T16:54:00.254Z,101026.17
2018-05-07T16:56:28.531Z,101027.15
2018-05-07T16:58:56.826Z,101025.06
2018-05-07T17:01:26.020Z,101026.19
2018-05-07T17:03:54.950Z,101015.48
2018-05-07T17:06:23.340Z,101017.59
2018-05-07T17:08:51.601Z,101018.97
2018-05-07T17:11:19.902Z,101019.02
2018-05-07T17:13:48.955Z,101012.97
2018-05-07T17:16:17.238Z,101015.55
2018-05-07T17:18:47.350Z,101012.58
2018-05-07T17:21:16.734Z,101016.86
2018-05-07T17:23:45.775Z,101011.64
2018-05-07T17:26:14.080Z,101011.27
2018-05-07T17:28:42.479Z,101011.48
2018-05-07T17:31:10.845Z,101005.34
2018-05-07T17:33:40.035Z,101008.09
2018-05-07T17:36:08.266Z,101007.50
2018-05-07T17:38:36.536Z,101014.48
2018-05-07T17:41:12.263Z,101015.73
2018-05-07T17:43:54.138Z,101010.73
2018-05-07T17:49:52.694Z,101006.13
2018-05-07T17:52:36.068Z,101008.66
2018-05-07T17:55:10.732Z,101008.52
2018-05-07T17:57:49.621Z,101006.96
2018-05-07T18:00:31.374Z,101008.40
2018-05-07T18:03:12.392Z,101008.45
2018-05-07T18:05:54.008Z,101004.70
2018-05-07T18:08:25.844Z,101007.05
2018-05-07T18:11:09.639Z,101001.69
2018-05-07T18:13:59.087Z,101003.14
2018-05-07T18:16:39.917Z,101002.95
2018-05-07T18:19:32.719Z,100999.16
2018-05-07T18:22:24.039Z,101002.00
2018-05-07T18:24:55.261Z,100999.97
2018-05-07T18:27:34.810Z,100997.84
2018-05-07T18:30:11.076Z,100997.55
2018-05-07T18:32:53.559Z,100994.05
2018-05-07T18:35:38.631Z,100989.63
2018-05-07T18:38:22.275Z,100993.85
2018-05-07T18:41:06.879Z,100993.22
2018-05-07T18:43:59.462Z,100989.34
2018-05-07T18:46:30.679Z,100993.52
2018-05-07T18:49:02.796Z,100992.37
2018-05-07T18:51:34.385Z,100998.56
2018-05-07T18:54:05.444Z,100995.42
2018-05-07T18:56:52.355Z,100992.67
2018-05-07T18:59:42.363Z,100996.28
2018-05-07T19:02:28.906Z,100996.05
2018-05-07T19:05:11.661Z,100996.89
2018-05-07T19:07:55.889Z,100998.05
2018-05-07T19:10:27.491Z,100994.98
2018-05-07T19:13:06.713Z,101001.59
2018-05-07T19:15:45.804Z,101006.05
2018-05-07T19:18:29.781Z,101001.69
2018-05-07T19:20:58.815Z,101006.02
2018-05-07T19:23:27.093Z,101005.00
2018-05-07T19:26:14.605Z,101009.09
2018-05-07T19:29:09.668Z,101008.44
2018-05-07T19:32:04.178Z,101012.02
2018-05-07T19:34:59.819Z,101016.14
2018-05-07T19:37:54.929Z,101008.37
2018-05-07T19:40:47.870Z,101007.56
2018-05-07T19:43:25.451Z,101015.88
2018-05-07T19:45:54.143Z,101016.30
2018-05-07T19:48:22.551Z,101018.02
2018-05-07T19:50:51.537Z,101019.23
2018-05-07T19:53:19.811Z,101030.41
2018-05-07T19:55:48.263Z,101028.39
2018-05-07T19:58:16.501Z,101025.05
2018-05-07T20:00:44.877Z,101029.45
2018-05-07T20:03:13.145Z,101023.23
2018-05-07T20:05:41.465Z,101028.45
2018-05-07T20:08:09.888Z,101030.61
2018-05-07T20:10:38.116Z,101027.16
2018-05-07T20:13:06.454Z,101024.16
2018-05-07T20:15:34.744Z,101028.12
2018-05-07T20:18:03.030Z,101032.30
2018-05-07T20:20:31.280Z,101033.56
2018-05-07T20:23:00.528Z,101034.45
2018-05-07T20:25:28.798Z,101036.05
2018-05-07T20:27:57.810Z,101035.53
2018-05-07T20:30:26.120Z,101035.50
2018-05-07T20:32:54.399Z,101034.65
2018-05-07T20:35:23.435Z,101041.16
2018-05-07T20:37:51.787Z,101043.78
2018-05-07T20:40:20.828Z,101045.34
2018-05-07T20:42:49.111Z,101040.27
2018-05-07T20:45:17.796Z,101040.95
2018-05-07T20:47:46.109Z,101038.56
2018-05-07T20:50:14.414Z,101040.20
2018-05-07T20:52:42.703Z,101039.80
2018-05-07T20:55:10.986Z,101045.53
2018-05-07T20:57:39.275Z,101045.42
2018-05-07T21:00:07.551Z,101042.66
2018-05-07T21:02:35.993Z,101040.64
2018-05-07T21:05:04.261Z,101032.77
2018-05-07T21:07:32.524Z,101037.20
2018-05-07T21:10:00.815Z,101041.22
2018-05-07T21:12:29.091Z,101041.66
2018-05-07T21:14:57.382Z,101042.56
2018-05-07T21:17:26.414Z,101043.72
2018-05-07T21:19:54.787Z,101039.91
2018-05-07T21:22:23.058Z,101039.66
2018-05-07T21:24:51.365Z,101031.40
2018-05-07T21:27:20.376Z,101034.24
2018-05-07T21:29:48.695Z,101036.19
2018-05-07T21:32:17.063Z,101042.38
2018-05-07T21:34:45.353Z,101034.44
2018-05-07T21:37:13.637Z,101034.71
2018-05-07T21:39:41.921Z,101036.38
2018-05-07T21:42:10.188Z,101037.70
2018-05-07T21:44:38.606Z,101040.03
2018-05-07T21:47:07.719Z,101029.95
2018-05-07T21:49:35.996Z,101033.97
2018-05-07T21:52:05.058Z,101034.14
2018-05-07T21:54:33.326Z,101036.91
2018-05-07T21:57:01.586Z,101033.41
2018-05-07T21:59:30.619Z,101039.30
2018-05-07T22:16:54.586Z,101032.80
2018-05-07T22:22:22.789Z,101034.56
2018-05-07T22:24:51.171Z,101030.63
2018-05-07T22:27:19.536Z,101028.95
2018-05-07T22:29:47.926Z,101031.61
2018-05-07T22:32:16.251Z,101029.62
2018-05-07T22:34:44.598Z,101026.95
2018-05-07T22:37:12.908Z,101028.02
2018-05-07T22:39:41.178Z,101027.52
2018-05-07T22:42:09.463Z,101029.70
2018-05-07T22:44:37.901Z,101026.92
2018-05-07T22:47:06.259Z,101026.39
2018-05-07T22:49:34.646Z,101022.96
2018-05-07T22:52:03.024Z,101021.68
2018-05-07T22:54:31.263Z,101021.83
2018-05-07T22:56:59.618Z,101028.82
2018-05-07T22:59:28.033Z,101020.54
2018-05-07T23:01:56.328Z,101028.07
2018-05-07T23:04:26.770Z,101019.66
2018-05-07T23:06:55.920Z,101019.47
2018-05-07T23:09:24.255Z,101021.55
2018-05-07T23:11:52.623Z,101024.11
2018-05-07T23:14:20.975Z,101017.16
2018-05-07T23:16:49.254Z,101029.08
2018-05-07T23:19:17.510Z,101026.47
2018-05-07T23:21:45.849Z,101024.18
2018-05-07T23:24:14.167Z,101029.46
2018-05-07T23:26:42.448Z,101027.10
2018-05-07T23:29:11.495Z,101028.42
2018-05-07T23:31:39.788Z,101028.13
2018-05-07T23:34:09.222Z,101019.74
2018-05-07T23:36:42.881Z,101026.42
2018-05-07T23:39:12.862Z,101023.02
2018-05-07T23:41:41.203Z,101020.41
2018-05-07T23:44:10.340Z,101018.97
2018-05-07T23:46:38.629Z,101014.48
2018-05-07T23:49:07.051Z,101014.48
2018-05-07T23:51:35.316Z,101007.91
2018-05-07T23:54:03.646Z,101009.38
2018-05-07T23:56:31.984Z,101012.66
2018-05-07T23:59:01.052Z,101006.27
